Huvudsida
METAR-TAF:

METAR-TAF

Flygplatser :

Tromsø flygplats

Tromsø, Norge

latitud: 69-41N, longitud: 018-55E, höjd: 1 m

Aktuellt väderrapport

Denna rapport gjordes för 27 minuter sedan, klockan 15:20 UTC
Vind 8 kt från syd/sydväst
Temperatur 16°C
Fuktighet 68%
Tryck 1005 hPa
Sikt 10 km eller mer
Inga moln under 1 500 m eller inga cumulonimbus

METAR: ENTC 161520Z 20008KT CAVOK 16/10 Q1005 NOSIG RMK WIND 2600FT 17022KT

Tid: 17:47 (15:47 UTC)

Väderprognos

Prognos gäller från 16 kl. 13 UTC till 17 kl. 12 UTC
Vind 8 kt från nord/nordost
Sikt 10 km eller mer
Spridda moln på en höjd av 4000 ft
Brutna moln på en höjd av 7000 ft
Temporärt
från 16 kl. 13 UTC till 17 kl. 12 UTC
Vind 10 kt från syd/sydväst
Temporärt
från 17 kl. 00 UTC till 17 kl. 12 UTC
regn

TAF: ENTC 1613/1712 03008KT 9999 SCT040 BKN070 TEMPO 1613/1712 21010KT TEMPO 1700/1712 RA

Aktuella väderrapporter och prognoser från 4000 flygplatser (METAR- och TAF-rapporter).

De tillgängliga stationerna syns som gula och röda prickar på kartan.

För musen över prickarna för att se namnen på stationerna.

Klicka sedan för att få väderrapporter och prognoser.

För att ändra kartan: Klicka på de gröna knapparna med ett svart kors på för att zooma in; den gröna knappen med ett streck på för att zooma ut; eller på de gröna pilarna för angränsande kartor.


METAR-TAF: